createdAt,value
2019-06-07T00:00:49.781Z,94.27
2019-06-07T00:01:49.779Z,95.55
2019-06-07T00:02:49.766Z,96.26
2019-06-07T00:03:49.753Z,96.46
2019-06-07T00:04:49.739Z,96.00
2019-06-07T00:05:49.761Z,95.79
2019-06-07T00:06:49.716Z,95.65
2019-06-07T00:07:49.706Z,95.59
2019-06-07T00:08:49.701Z,96.00
2019-06-07T00:09:49.686Z,97.07
2019-06-07T00:10:49.673Z,97.17
2019-06-07T00:11:49.661Z,97.67
2019-06-07T00:12:49.651Z,97.92
2019-06-07T00:13:49.643Z,97.42
2019-06-07T00:14:49.716Z,97.11
2019-06-07T00:15:49.623Z,98.18
2019-06-07T00:16:49.606Z,97.72
2019-06-07T00:17:49.605Z,97.02
2019-06-07T00:18:49.586Z,96.41
2019-06-07T00:19:49.609Z,96.66
2019-06-07T00:20:49.562Z,95.95
2019-06-07T00:22:31.217Z,94.78
2019-06-07T00:22:50.543Z,94.78
2019-06-07T00:23:49.531Z,93.16
2019-06-07T00:24:49.523Z,93.37
2019-06-07T00:25:49.508Z,93.26
2019-06-07T00:26:58.418Z,93.67
2019-06-07T00:27:50.485Z,93.06
2019-06-07T00:28:49.475Z,93.26
2019-06-07T00:29:49.466Z,93.26
2019-06-07T00:30:52.028Z,94.58
2019-06-07T00:31:49.443Z,93.42
2019-06-07T00:32:49.435Z,93.67
2019-06-07T00:33:49.422Z,93.46
2019-06-07T00:34:49.410Z,93.57
2019-06-07T00:35:49.399Z,93.97
2019-06-07T00:36:49.387Z,94.68
2019-06-07T00:37:49.379Z,96.20
2019-06-07T00:38:49.370Z,95.29
2019-06-07T00:40:12.953Z,96.10
2019-06-07T00:40:50.343Z,93.77
2019-06-07T00:41:49.334Z,93.67
2019-06-07T00:42:49.322Z,94.48
2019-06-07T00:43:49.314Z,93.26
2019-06-07T00:44:49.328Z,92.86
2019-06-07T00:45:49.296Z,92.25
2019-06-07T00:46:49.279Z,93.26
2019-06-07T00:47:49.271Z,92.25
2019-06-07T00:48:49.257Z,93.77
2019-06-07T00:49:49.257Z,93.77
2019-06-07T00:50:49.235Z,92.55
2019-06-07T00:51:51.398Z,91.03
2019-06-07T00:53:50.201Z,91.03
2019-06-07T00:54:49.200Z,89.92
2019-06-07T00:55:49.185Z,90.42
2019-06-07T00:56:49.170Z,90.02
2019-06-07T00:57:49.157Z,90.02
2019-06-07T00:59:09.813Z,91.94
2019-06-07T00:59:50.134Z,92.45
2019-06-07T01:00:49.149Z,91.03
2019-06-07T01:01:49.124Z,90.93
2019-06-07T01:02:49.103Z,91.24
2019-06-07T01:03:49.095Z,91.54
2019-06-07T01:04:49.084Z,92.14
2019-06-07T01:05:49.074Z,89.81
2019-06-07T01:06:49.085Z,91.03
2019-06-07T01:07:49.051Z,91.24
2019-06-07T01:08:49.042Z,90.73
2019-06-07T01:09:49.026Z,91.94
2019-06-07T01:10:53.660Z,92.35
2019-06-07T01:11:50.010Z,93.37
2019-06-07T01:12:48.997Z,91.94
2019-06-07T01:13:48.986Z,93.26
2019-06-07T01:14:48.988Z,93.37
2019-06-07T01:15:48.961Z,93.16
2019-06-07T01:16:57.099Z,93.26
2019-06-07T01:18:25.847Z,92.70
2019-06-07T01:18:51.353Z,93.46
2019-06-07T01:19:48.918Z,92.60
2019-06-07T01:20:48.908Z,92.65
2019-06-07T01:21:48.895Z,92.49
2019-06-07T01:22:48.888Z,92.40
2019-06-07T01:24:07.929Z,92.49
2019-06-07T01:24:49.870Z,93.61
2019-06-07T01:25:48.851Z,93.41
2019-06-07T01:26:48.840Z,93.81
2019-06-07T01:27:48.834Z,93.71
2019-06-07T01:28:48.820Z,94.02
2019-06-07T01:29:48.809Z,93.41
2019-06-07T01:30:48.802Z,92.35
2019-06-07T01:31:48.789Z,93.10
2019-06-07T01:32:48.778Z,93.10
2019-06-07T01:33:51.160Z,91.99
2019-06-07T01:34:48.757Z,93.21
2019-06-07T01:35:48.743Z,92.40
2019-06-07T01:36:48.732Z,93.61
2019-06-07T01:37:48.733Z,93.21
2019-06-07T01:38:48.711Z,91.58
2019-06-07T01:39:48.733Z,92.29
2019-06-07T01:40:48.694Z,91.48
2019-06-07T01:41:48.677Z,92.29
2019-06-07T01:42:48.670Z,91.48
2019-06-07T01:43:48.656Z,92.40
2019-06-07T01:44:48.653Z,92.03
2019-06-07T01:45:48.636Z,91.22
2019-06-07T01:46:48.625Z,92.13
2019-06-07T01:47:48.613Z,92.24
2019-06-07T01:48:49.970Z,93.45
2019-06-07T01:49:48.589Z,92.33
2019-06-07T01:50:48.582Z,91.32
2019-06-07T01:51:48.594Z,91.93
2019-06-07T01:52:48.560Z,90.31
2019-06-07T01:53:48.577Z,89.70
2019-06-07T01:54:57.481Z,89.70
2019-06-07T01:55:49.531Z,89.90
2019-06-07T01:56:48.516Z,89.80
2019-06-07T01:57:48.789Z,90.20
2019-06-07T01:58:48.493Z,90.25
2019-06-07T01:59:48.483Z,90.31
2019-06-07T02:00:48.473Z,90.41
2019-06-07T02:01:48.457Z,91.47
2019-06-07T02:02:48.504Z,91.36
2019-06-07T02:03:48.437Z,91.36
2019-06-07T02:04:48.445Z,90.55
2019-06-07T02:05:48.415Z,91.36
2019-06-07T02:06:48.411Z,90.96
2019-06-07T02:07:48.397Z,91.36
2019-06-07T02:08:48.382Z,90.86
2019-06-07T02:09:48.374Z,90.25
2019-06-07T02:10:48.361Z,90.45
2019-06-07T02:11:48.357Z,90.05
2019-06-07T02:12:48.342Z,91.36
2019-06-07T02:13:48.327Z,90.55
2019-06-07T02:14:48.321Z,90.96
2019-06-07T02:15:48.306Z,91.26
2019-06-07T02:16:48.297Z,90.59
2019-06-07T02:17:48.283Z,91.16
2019-06-07T02:19:01.357Z,91.67
2019-06-07T02:19:49.262Z,91.47
2019-06-07T02:20:48.251Z,91.20
2019-06-07T02:21:48.241Z,91.97
2019-06-07T02:22:48.226Z,91.82
2019-06-07T02:23:48.218Z,92.02
2019-06-07T02:25:34.047Z,92.42
2019-06-07T02:25:50.585Z,92.32
2019-06-07T02:26:48.188Z,92.52
2019-06-07T02:27:48.203Z,92.42
2019-06-07T02:28:48.171Z,93.54
2019-06-07T02:29:48.153Z,92.52
2019-06-07T02:30:59.438Z,93.03
2019-06-07T02:31:49.129Z,93.03
2019-06-07T02:32:48.120Z,93.54
2019-06-07T02:33:48.107Z,94.15
2019-06-07T02:34:48.113Z,93.74
2019-06-07T02:35:48.087Z,93.44
2019-06-07T02:36:48.075Z,93.44
2019-06-07T02:37:48.105Z,93.74
2019-06-07T02:38:48.049Z,94.60
2019-06-07T02:39:48.043Z,94.56
2019-06-07T02:40:48.032Z,93.74
2019-06-07T02:41:48.024Z,93.79
2019-06-07T02:42:48.013Z,95.21
2019-06-07T02:43:48.001Z,93.89
2019-06-07T02:44:47.988Z,94.20
2019-06-07T02:45:47.977Z,94.80
2019-06-07T02:46:49.955Z,95.10
2019-06-07T02:47:47.957Z,95.10
2019-06-07T02:48:47.942Z,96.43
2019-06-07T02:49:47.932Z,96.02
2019-06-07T02:50:47.924Z,95.41
2019-06-07T02:51:47.914Z,96.53
2019-06-07T02:52:49.063Z,96.12
2019-06-07T02:53:47.888Z,96.17
2019-06-07T02:54:47.883Z,96.37
2019-06-07T02:56:34.253Z,96.68
2019-06-07T02:56:57.818Z,96.47
2019-06-07T02:57:48.847Z,96.92
2019-06-07T02:58:47.869Z,97.33
2019-06-07T03:00:06.700Z,97.94
2019-06-07T03:01:07.415Z,98.14
2019-06-07T03:01:48.801Z,98.45
2019-06-07T03:02:47.790Z,98.55
2019-06-07T03:03:47.780Z,98.35
2019-06-07T03:04:47.774Z,98.75
2019-06-07T03:05:47.772Z,98.75
2019-06-07T03:06:47.743Z,98.80
2019-06-07T03:07:47.734Z,98.30
2019-06-07T03:08:47.726Z,98.50
2019-06-07T03:09:47.719Z,98.66
2019-06-07T03:10:47.702Z,98.55
2019-06-07T03:11:47.687Z,98.45
2019-06-07T03:12:47.678Z,98.71
2019-06-07T03:13:47.674Z,98.66
2019-06-07T03:14:47.661Z,98.61
2019-06-07T03:15:50.217Z,98.61
2019-06-07T03:16:47.634Z,98.61
2019-06-07T03:17:47.666Z,98.71
2019-06-07T03:18:47.611Z,98.50
2019-06-07T03:19:47.609Z,98.20
2019-06-07T03:21:04.700Z,98.41
2019-06-07T03:21:48.577Z,98.71
2019-06-07T03:22:47.568Z,97.49
2019-06-07T03:23:47.555Z,97.39
2019-06-07T03:24:47.546Z,98.00
2019-06-07T03:25:47.531Z,98.00
2019-06-07T03:27:31.710Z,98.30
2019-06-07T03:27:50.167Z,98.14
2019-06-07T03:28:47.501Z,98.66
2019-06-07T03:29:47.488Z,98.14
2019-06-07T03:31:00.818Z,98.75
2019-06-07T03:31:48.514Z,98.75
2019-06-07T03:32:48.614Z,98.86
2019-06-07T03:33:47.447Z,98.61
2019-06-07T03:34:47.442Z,98.71
2019-06-07T03:35:47.488Z,98.91
2019-06-07T03:36:47.412Z,98.50
2019-06-07T03:37:47.402Z,98.50
2019-06-07T03:38:47.392Z,98.30
2019-06-07T03:39:47.381Z,99.11
2019-06-07T03:40:47.369Z,99.11
2019-06-07T03:42:05.331Z,98.46
2019-06-07T03:42:48.347Z,98.36
2019-06-07T03:43:47.336Z,98.16
2019-06-07T03:44:47.330Z,98.26
2019-06-07T03:45:47.335Z,98.21
2019-06-07T03:46:47.327Z,98.72
2019-06-07T03:47:47.341Z,98.62
2019-06-07T03:48:47.289Z,98.82
2019-06-07T03:49:47.293Z,98.41
2019-06-07T03:50:47.271Z,99.18
2019-06-07T03:51:47.263Z,98.27
2019-06-07T03:52:47.247Z,98.47
2019-06-07T03:53:47.241Z,97.66
2019-06-07T03:54:47.235Z,96.84
2019-06-07T03:55:47.216Z,95.53
2019-06-07T03:56:47.197Z,95.22
2019-06-07T03:58:30.109Z,94.92
2019-06-07T03:58:50.012Z,95.12
2019-06-07T03:59:47.208Z,94.92
2019-06-07T04:00:47.149Z,94.17
2019-06-07T04:01:47.152Z,94.51
2019-06-07T04:02:47.135Z,93.60
2019-06-07T04:03:51.835Z,93.70
2019-06-07T04:04:47.117Z,93.49
2019-06-07T04:05:47.124Z,94.21
2019-06-07T04:06:47.085Z,94.10
2019-06-07T04:07:47.075Z,93.49
2019-06-07T04:08:47.061Z,93.35
2019-06-07T04:09:47.052Z,93.29
2019-06-07T04:10:59.238Z,92.44
2019-06-07T04:11:48.031Z,92.13
2019-06-07T04:12:47.019Z,93.76
2019-06-07T04:13:47.010Z,93.65
2019-06-07T04:14:47.032Z,92.33
2019-06-07T04:15:47.077Z,92.44
2019-06-07T04:16:46.985Z,93.45
2019-06-07T04:18:01.532Z,93.25
2019-06-07T04:18:47.964Z,92.94
2019-06-07T04:19:46.945Z,93.35
2019-06-07T04:20:46.934Z,92.33
2019-06-07T04:21:46.961Z,93.45
2019-06-07T04:22:46.910Z,93.00
2019-06-07T04:23:46.901Z,93.15
2019-06-07T04:24:46.920Z,92.90
2019-06-07T04:25:46.878Z,91.28
2019-06-07T04:26:46.978Z,90.97
2019-06-07T04:27:46.855Z,91.17
2019-06-07T04:30:06.538Z,91.38
2019-06-07T04:30:47.820Z,91.28
2019-06-07T04:31:46.811Z,90.97
2019-06-07T04:32:46.799Z,91.17
2019-06-07T04:33:46.793Z,91.48
2019-06-07T04:34:46.883Z,91.17
2019-06-07T04:35:46.770Z,90.06
2019-06-07T04:36:58.624Z,90.06
2019-06-07T04:37:47.744Z,90.36
2019-06-07T04:38:46.740Z,91.48
2019-06-07T04:39:46.747Z,90.32
2019-06-07T04:40:47.091Z,91.24
2019-06-07T04:41:46.706Z,90.02
2019-06-07T04:42:46.696Z,90.42
2019-06-07T04:43:46.686Z,88.80
2019-06-07T04:44:46.674Z,88.90
2019-06-07T04:45:51.161Z,88.86
2019-06-07T04:46:46.647Z,89.61
2019-06-07T04:47:46.637Z,90.08
2019-06-07T04:48:46.628Z,88.35
2019-06-07T04:49:46.615Z,88.76
2019-06-07T04:50:46.604Z,88.86
2019-06-07T04:51:46.592Z,86.53
2019-06-07T04:52:46.584Z,88.05
2019-06-07T04:53:46.570Z,87.91
2019-06-07T04:54:46.564Z,88.05
2019-06-07T04:55:46.552Z,87.95
2019-06-07T04:56:46.542Z,87.51
2019-06-07T04:57:46.530Z,85.88
2019-06-07T04:58:46.522Z,85.88
2019-06-07T05:00:12.765Z,85.68
2019-06-07T05:00:54.134Z,85.78
2019-06-07T05:01:47.480Z,85.99
2019-06-07T05:02:46.472Z,85.88
2019-06-07T05:03:46.525Z,84.53
2019-06-07T05:04:46.453Z,84.77
2019-06-07T05:05:46.441Z,85.64
2019-06-07T05:06:46.429Z,85.54
2019-06-07T05:07:46.534Z,85.54
2019-06-07T05:08:46.407Z,85.94
2019-06-07T05:09:46.398Z,84.33
2019-06-07T05:10:46.383Z,84.73
2019-06-07T05:11:46.375Z,84.19
2019-06-07T05:12:46.365Z,83.61
2019-06-07T05:13:46.355Z,84.89
2019-06-07T05:14:46.341Z,83.98
2019-06-07T05:15:46.330Z,84.19
2019-06-07T05:16:46.326Z,83.88
2019-06-07T05:17:46.337Z,82.76
2019-06-07T05:18:46.299Z,84.04
2019-06-07T05:19:46.284Z,82.76
2019-06-07T05:20:46.344Z,82.46
2019-06-07T05:22:02.601Z,82.46
2019-06-07T05:22:47.251Z,82.53
2019-06-07T05:24:09.679Z,82.53
2019-06-07T05:24:47.230Z,80.87
2019-06-07T05:25:46.218Z,81.37
2019-06-07T05:26:46.211Z,82.35
2019-06-07T05:27:46.800Z,80.53
2019-06-07T05:28:46.187Z,82.24
2019-06-07T05:30:09.089Z,82.14
2019-06-07T05:31:47.152Z,79.17
2019-06-07T05:32:46.337Z,79.17
2019-06-07T05:33:46.132Z,76.75
2019-06-07T05:34:47.350Z,77.42
2019-06-07T05:35:46.132Z,78.30
2019-06-07T05:36:47.870Z,75.20
2019-06-07T05:37:47.093Z,75.36
2019-06-07T05:38:46.101Z,73.98
2019-06-07T05:39:46.734Z,72.17
2019-06-07T05:40:48.784Z,70.56
2019-06-07T05:41:46.046Z,70.12
2019-06-07T05:42:46.880Z,69.99
2019-06-07T05:44:01.861Z,71.20
2019-06-07T05:44:47.012Z,68.05
2019-06-07T05:45:47.069Z,69.45
2019-06-07T05:46:47.403Z,70.03
2019-06-07T05:47:50.600Z,68.62
2019-06-07T05:48:46.968Z,69.92
2019-06-07T05:49:47.272Z,67.28
2019-06-07T05:50:55.986Z,67.41
2019-06-07T05:51:46.933Z,67.48
2019-06-07T05:52:47.581Z,66.35
2019-06-07T05:53:46.298Z,65.31
2019-06-07T05:54:47.101Z,64.71
2019-06-07T05:55:47.663Z,65.54
2019-06-07T05:56:45.879Z,65.14
2019-06-07T05:57:50.921Z,65.54
2019-06-07T05:58:46.864Z,66.24
2019-06-07T05:59:47.467Z,65.21
2019-06-07T06:00:47.405Z,63.70
2019-06-07T06:01:56.006Z,63.20
2019-06-07T06:03:04.423Z,65.28
2019-06-07T06:03:48.492Z,63.34
2019-06-07T06:04:49.276Z,62.14
2019-06-07T06:05:54.569Z,63.14
2019-06-07T06:06:47.592Z,63.84
2019-06-07T06:07:50.514Z,62.04
2019-06-07T06:08:47.973Z,63.14
2019-06-07T06:09:46.171Z,62.11
2019-06-07T06:10:48.629Z,62.01
2019-06-07T06:11:59.560Z,61.68
2019-06-07T06:12:51.682Z,60.31
2019-06-07T06:14:05.357Z,62.21
2019-06-07T06:14:47.178Z,59.88
2019-06-07T06:16:00.431Z,58.00
2019-06-07T06:16:49.690Z,60.74
2019-06-07T06:17:49.031Z,61.14
2019-06-07T06:18:47.718Z,63.04
2019-06-07T06:19:49.635Z,64.22
2019-06-07T06:21:09.455Z,65.42
2019-06-07T06:21:46.614Z,61.75
2019-06-07T06:22:48.728Z,62.75
2019-06-07T06:23:50.907Z,63.12
2019-06-07T06:25:22.558Z,62.09
2019-06-07T06:25:55.652Z,60.99
2019-06-07T06:26:52.274Z,60.27
2019-06-07T06:28:46.540Z,60.19
2019-06-07T06:29:47.056Z,59.30
2019-06-07T06:30:47.902Z,57.92
2019-06-07T06:32:35.844Z,59.82
2019-06-07T06:32:52.667Z,62.08
2019-06-07T06:33:47.485Z,61.01
2019-06-07T06:34:49.251Z,61.91
2019-06-07T06:35:49.394Z,61.78
2019-06-07T06:36:47.779Z,60.48
2019-06-07T06:37:49.578Z,61.65
2019-06-07T06:38:49.391Z,58.98
2019-06-07T06:39:48.218Z,59.18
2019-06-07T06:40:49.059Z,62.18
2019-06-07T06:41:58.576Z,60.21
2019-06-07T06:42:50.092Z,63.11
2019-06-07T06:43:49.441Z,65.12
2019-06-07T06:44:47.120Z,63.28
2019-06-07T06:45:49.753Z,60.18
2019-06-07T06:46:56.167Z,59.88
2019-06-07T06:47:49.017Z,62.11
2019-06-07T06:48:49.446Z,59.61
2019-06-07T06:49:49.145Z,60.38
2019-06-07T06:50:49.024Z,62.15
2019-06-07T06:51:50.037Z,58.18
2019-06-07T06:52:50.785Z,63.28
2019-06-07T06:53:48.740Z,61.35
2019-06-07T06:54:53.577Z,60.62
2019-06-07T06:55:48.455Z,59.42
2019-06-07T06:56:47.001Z,62.09
2019-06-07T06:57:45.856Z,58.84
2019-06-07T06:59:34.006Z,55.11
2019-06-07T06:59:49.626Z,58.28
2019-06-07T07:00:57.000Z,55.43
2019-06-07T07:01:49.448Z,56.53
2019-06-07T07:03:32.729Z,56.01
2019-06-07T07:04:09.562Z,53.22
2019-06-07T07:04:48.741Z,52.74
2019-06-07T07:05:49.550Z,54.76
2019-06-07T07:06:45.569Z,54.76
2019-06-07T07:07:45.945Z,52.67
2019-06-07T07:08:47.893Z,52.07
2019-06-07T07:09:51.082Z,50.70
2019-06-07T07:10:48.555Z,54.46
2019-06-07T07:12:07.641Z,54.36
2019-06-07T07:12:47.861Z,52.55
2019-06-07T07:13:49.209Z,51.95
2019-06-07T07:14:49.169Z,51.75
2019-06-07T07:15:47.358Z,53.04
2019-06-07T07:16:49.999Z,52.22
2019-06-07T07:17:54.007Z,50.13
2019-06-07T07:18:47.571Z,52.00
2019-06-07T07:19:48.267Z,50.10
2019-06-07T07:20:45.894Z,48.53
2019-06-07T07:21:45.954Z,50.43
2019-06-07T07:22:48.047Z,52.22
2019-06-07T07:24:05.474Z,49.43
2019-06-07T07:24:47.045Z,50.32
2019-06-07T07:25:50.616Z,48.80
2019-06-07T07:26:48.178Z,49.30
2019-06-07T07:27:47.018Z,48.21
2019-06-07T07:28:46.582Z,49.15
2019-06-07T07:29:49.566Z,54.76
2019-06-07T07:30:47.273Z,49.77
2019-06-07T07:31:45.651Z,49.08
2019-06-07T07:32:46.717Z,50.42
2019-06-07T07:34:23.978Z,52.04
2019-06-07T07:34:49.168Z,52.74
2019-06-07T07:36:07.871Z,53.72
2019-06-07T07:36:48.197Z,54.79
2019-06-07T07:37:48.928Z,54.94
2019-06-07T07:38:53.231Z,54.98
2019-06-07T07:39:48.661Z,53.52
2019-06-07T07:41:01.972Z,52.92
2019-06-07T07:42:12.370Z,53.11
2019-06-07T07:42:47.558Z,52.81
2019-06-07T07:43:51.917Z,50.60
2019-06-07T07:44:47.168Z,52.57
2019-06-07T07:45:50.334Z,53.64
2019-06-07T07:46:46.624Z,53.24
2019-06-07T07:48:07.131Z,55.04
2019-06-07T07:48:46.028Z,52.42
2019-06-07T07:49:45.389Z,52.59
2019-06-07T07:50:47.515Z,55.48
2019-06-07T07:51:46.321Z,54.28
2019-06-07T07:52:45.933Z,52.32
2019-06-07T07:53:54.358Z,53.14
2019-06-07T07:54:46.799Z,53.27
2019-06-07T07:55:45.203Z,56.26
2019-06-07T07:56:45.737Z,54.36
2019-06-07T07:57:46.591Z,56.33
2019-06-07T07:58:49.740Z,53.96
2019-06-07T08:00:03.270Z,54.71
2019-06-07T08:00:52.812Z,53.94
2019-06-07T08:01:46.105Z,56.44
2019-06-07T08:02:48.355Z,54.54
2019-06-07T08:03:45.719Z,56.04
2019-06-07T08:05:47.028Z,56.61
2019-06-07T08:06:44.477Z,58.88
2019-06-07T08:07:44.466Z,55.54
2019-06-07T08:08:44.458Z,52.04
2019-06-07T08:09:44.444Z,53.04
2019-06-07T08:10:44.433Z,54.74
2019-06-07T08:11:47.229Z,52.92
2019-06-07T08:13:12.884Z,54.88
2019-06-07T08:13:45.758Z,53.09
2019-06-07T08:14:44.397Z,53.06
2019-06-07T08:15:44.386Z,54.16
2019-06-07T08:16:44.369Z,53.11
2019-06-07T08:17:44.359Z,52.86
2019-06-07T08:18:44.348Z,49.86
2019-06-07T08:19:44.342Z,52.07
2019-06-07T08:21:04.679Z,49.43
2019-06-07T08:21:47.566Z,51.37
2019-06-07T08:22:44.305Z,50.00
2019-06-07T08:23:44.296Z,52.72
2019-06-07T08:24:44.286Z,56.51
2019-06-07T08:25:44.275Z,53.04
2019-06-07T08:26:44.260Z,54.44
2019-06-07T08:27:44.254Z,52.72
2019-06-07T08:28:44.242Z,53.96
2019-06-07T08:29:54.070Z,51.95
2019-06-07T08:30:52.988Z,51.92
2019-06-07T08:31:45.208Z,51.20
2019-06-07T08:32:44.198Z,48.69
2019-06-07T08:33:44.191Z,49.58
2019-06-07T08:34:44.186Z,49.49
2019-06-07T08:36:06.014Z,49.38
2019-06-07T08:36:45.156Z,50.32
2019-06-07T08:38:48.262Z,53.52
2019-06-07T08:39:45.126Z,54.47
2019-06-07T08:40:44.117Z,54.60
2019-06-07T08:41:54.151Z,56.89
2019-06-07T08:43:04.425Z,57.52
2019-06-07T08:43:45.082Z,57.65
2019-06-07T08:44:44.077Z,58.15
2019-06-07T08:45:44.066Z,59.32
2019-06-07T08:46:44.055Z,58.72
2019-06-07T08:47:44.042Z,57.95
2019-06-07T08:48:44.030Z,56.09
2019-06-07T08:49:44.020Z,56.34
2019-06-07T08:50:44.019Z,54.76
2019-06-07T08:51:44.002Z,56.87
2019-06-07T08:52:43.993Z,55.00
2019-06-07T08:54:00.833Z,47.50
2019-06-07T08:54:44.969Z,48.89
2019-06-07T08:55:43.960Z,51.50
2019-06-07T08:56:43.947Z,49.04
2019-06-07T08:57:43.955Z,48.41
2019-06-07T08:58:43.926Z,48.02
2019-06-07T08:59:43.918Z,48.24
2019-06-07T09:00:46.903Z,48.58
2019-06-07T09:01:43.893Z,49.21
2019-06-07T09:02:43.888Z,52.22
2019-06-07T09:03:43.876Z,52.34
2019-06-07T09:04:43.866Z,54.96
2019-06-07T09:05:43.854Z,54.76
2019-06-07T09:07:44.837Z,54.50
2019-06-07T09:08:43.820Z,50.68
2019-06-07T09:09:43.813Z,52.91
2019-06-07T09:10:43.800Z,50.23
2019-06-07T09:11:43.836Z,53.28
2019-06-07T09:12:43.778Z,50.05
2019-06-07T09:13:43.768Z,50.13
2019-06-07T09:14:59.587Z,49.74
2019-06-07T09:15:44.747Z,48.77
2019-06-07T09:16:43.792Z,48.82
2019-06-07T09:18:30.392Z,51.23
2019-06-07T09:18:45.197Z,49.63
2019-06-07T09:19:43.707Z,47.85
2019-06-07T09:20:43.697Z,47.45
2019-06-07T09:21:43.690Z,50.56
2019-06-07T09:22:43.679Z,47.28
2019-06-07T09:23:43.674Z,50.03
2019-06-07T09:24:43.669Z,47.11
2019-06-07T09:25:56.743Z,46.27
2019-06-07T09:26:44.640Z,48.00
2019-06-07T09:27:43.631Z,48.86
2019-06-07T09:28:43.621Z,50.53
2019-06-07T09:29:43.614Z,48.96
2019-06-07T09:30:43.603Z,48.27
2019-06-07T09:31:52.554Z,49.86
2019-06-07T09:32:44.580Z,47.32
2019-06-07T09:33:43.578Z,51.07
2019-06-07T09:34:43.567Z,48.22
2019-06-07T09:35:43.554Z,49.38
2019-06-07T09:36:43.583Z,48.52
2019-06-07T09:38:44.539Z,46.91
2019-06-07T09:39:43.518Z,46.58
2019-06-07T09:40:43.508Z,50.03
2019-06-07T09:41:49.413Z,45.84
2019-06-07T09:42:44.484Z,46.31
2019-06-07T09:44:44.470Z,46.59
2019-06-07T09:45:43.468Z,45.57
2019-06-07T09:46:43.452Z,45.48
2019-06-07T09:47:43.439Z,44.29
2019-06-07T09:49:44.424Z,46.26
2019-06-07T09:50:43.413Z,48.17
2019-06-07T09:51:43.407Z,49.63
2019-06-07T09:52:57.748Z,47.09
2019-06-07T09:53:44.385Z,46.09
2019-06-07T09:55:05.864Z,46.59
2019-06-07T09:55:44.365Z,47.21
2019-06-07T09:56:43.355Z,46.04
2019-06-07T09:57:43.352Z,45.34
2019-06-07T09:58:53.270Z,45.92
2019-06-07T09:59:44.323Z,47.26
2019-06-07T10:00:43.363Z,45.87
2019-06-07T10:01:43.311Z,42.71
2019-06-07T10:02:43.308Z,45.08
2019-06-07T10:03:43.296Z,45.97
2019-06-07T10:04:43.281Z,48.23
2019-06-07T10:05:43.271Z,46.08
2019-06-07T10:06:43.273Z,42.44
2019-06-07T10:07:59.582Z,46.80
2019-06-07T10:10:44.218Z,45.79
2019-06-07T10:11:43.210Z,42.21
2019-06-07T10:12:43.200Z,44.18
2019-06-07T10:13:43.189Z,45.71
2019-06-07T10:14:45.174Z,45.23
2019-06-07T10:15:43.170Z,46.47
2019-06-07T10:16:47.027Z,47.75
2019-06-07T10:17:43.149Z,45.87
2019-06-07T10:18:43.141Z,46.64
2019-06-07T10:19:43.136Z,48.30
2019-06-07T10:20:43.128Z,44.07
2019-06-07T10:21:43.123Z,46.37
2019-06-07T10:22:43.107Z,48.45
2019-06-07T10:23:43.105Z,46.51
2019-06-07T10:24:43.157Z,46.48
2019-06-07T10:25:43.082Z,46.80
2019-06-07T10:26:43.076Z,47.35
2019-06-07T10:27:43.060Z,47.92
2019-06-07T10:28:43.045Z,45.94
2019-06-07T10:29:43.052Z,47.30
2019-06-07T10:30:43.030Z,49.46
2019-06-07T10:31:43.026Z,49.48
2019-06-07T10:32:43.002Z,49.48
2019-06-07T10:33:42.994Z,49.01
2019-06-07T10:34:42.989Z,49.08
2019-06-07T10:35:42.968Z,50.03
2019-06-07T10:36:42.974Z,48.66
2019-06-07T10:37:42.948Z,47.16
2019-06-07T10:38:42.936Z,47.47
2019-06-07T10:39:48.713Z,49.56
2019-06-07T10:40:43.914Z,47.97
2019-06-07T10:41:42.906Z,49.31
2019-06-07T10:42:42.906Z,47.80
2019-06-07T10:43:42.885Z,47.94
2019-06-07T10:44:42.883Z,49.95
2019-06-07T10:45:42.864Z,51.65
2019-06-07T10:46:42.859Z,52.17
2019-06-07T10:47:42.874Z,52.39
2019-06-07T10:48:42.832Z,50.65
2019-06-07T10:49:42.823Z,52.27
2019-06-07T10:50:42.817Z,55.49
2019-06-07T10:51:42.803Z,53.09
2019-06-07T10:52:42.789Z,56.46
2019-06-07T10:53:42.781Z,52.89
2019-06-07T10:54:42.773Z,51.15
2019-06-07T10:55:42.764Z,47.97
2019-06-07T10:56:42.751Z,50.48
2019-06-07T10:57:42.740Z,46.77
2019-06-07T10:58:42.731Z,44.19
2019-06-07T10:59:42.729Z,44.98
2019-06-07T11:00:42.713Z,46.12
2019-06-07T11:01:42.712Z,46.34
2019-06-07T11:02:42.698Z,46.04
2019-06-07T11:03:42.685Z,48.90
2019-06-07T11:04:42.678Z,46.83
2019-06-07T11:05:42.663Z,46.42
2019-06-07T11:06:42.675Z,48.97
2019-06-07T11:07:42.654Z,46.61
2019-06-07T11:08:42.640Z,45.27
2019-06-07T11:09:42.629Z,47.45
2019-06-07T11:10:42.613Z,46.31
2019-06-07T11:11:42.605Z,47.65
2019-06-07T11:12:42.594Z,46.14
2019-06-07T11:13:42.593Z,45.30
2019-06-07T11:14:42.578Z,46.59
2019-06-07T11:15:42.561Z,44.21
2019-06-07T11:16:42.547Z,45.34
2019-06-07T11:17:42.537Z,45.72
2019-06-07T11:18:42.524Z,48.77
2019-06-07T11:19:42.511Z,46.79
2019-06-07T11:20:42.506Z,46.45
2019-06-07T11:21:42.490Z,45.26
2019-06-07T11:22:42.479Z,45.78
2019-06-07T11:23:42.472Z,45.79
2019-06-07T11:24:42.465Z,47.90
2019-06-07T11:25:42.448Z,46.53
2019-06-07T11:26:42.447Z,47.28
2019-06-07T11:27:42.426Z,46.17
2019-06-07T11:28:42.421Z,46.57
2019-06-07T11:29:42.407Z,45.72
2019-06-07T11:30:42.396Z,46.00
2019-06-07T11:31:42.403Z,45.20
2019-06-07T11:32:42.377Z,47.53
2019-06-07T11:33:42.367Z,45.49
2019-06-07T11:34:42.365Z,45.68
2019-06-07T11:35:42.381Z,47.87
2019-06-07T11:36:42.334Z,46.88
2019-06-07T11:37:42.326Z,47.45
2019-06-07T11:38:42.317Z,48.94
2019-06-07T11:39:42.303Z,47.65
2019-06-07T11:40:42.310Z,46.14
2019-06-07T11:41:42.291Z,47.53
2019-06-07T11:42:42.304Z,45.30
2019-06-07T11:43:42.265Z,44.68
2019-06-07T11:44:55.720Z,48.10
2019-06-07T11:45:43.239Z,47.78
2019-06-07T11:46:42.238Z,46.15
2019-06-07T11:47:42.222Z,46.27
2019-06-07T11:48:42.213Z,45.90
2019-06-07T11:49:42.202Z,44.15
2019-06-07T11:50:42.197Z,46.33
2019-06-07T11:51:42.183Z,46.12
2019-06-07T11:52:45.959Z,46.42
2019-06-07T11:53:42.164Z,46.11
2019-06-07T11:54:42.156Z,45.09
2019-06-07T11:55:42.141Z,44.15
2019-06-07T11:56:42.131Z,45.38
2019-06-07T11:57:42.120Z,43.89
2019-06-07T11:58:42.108Z,48.45
2019-06-07T11:59:42.098Z,45.94
2019-06-07T12:00:42.087Z,46.83
2019-06-07T12:01:42.074Z,48.82
2019-06-07T12:02:42.075Z,46.73
2019-06-07T12:03:42.059Z,47.01
2019-06-07T12:04:42.051Z,45.90
2019-06-07T12:05:42.038Z,48.05
2019-06-07T12:06:42.029Z,44.89
2019-06-07T12:07:42.018Z,46.86
2019-06-07T12:08:42.015Z,46.40
2019-06-07T12:09:55.531Z,46.20
2019-06-07T12:10:42.987Z,45.07
2019-06-07T12:11:41.977Z,43.51
2019-06-07T12:12:41.970Z,43.02
2019-06-07T12:13:41.956Z,42.84
2019-06-07T12:14:41.949Z,44.37
2019-06-07T12:15:41.939Z,46.55
2019-06-07T12:16:41.983Z,46.40
2019-06-07T12:17:41.915Z,44.10
2019-06-07T12:18:41.904Z,45.47
2019-06-07T12:19:41.897Z,44.93
2019-06-07T12:20:41.890Z,42.22
2019-06-07T12:21:41.874Z,45.95
2019-06-07T12:22:41.864Z,47.56
2019-06-07T12:23:41.855Z,46.23
2019-06-07T12:24:41.900Z,46.11
2019-06-07T12:25:41.838Z,48.01
2019-06-07T12:26:41.864Z,46.35
2019-06-07T12:27:41.834Z,46.47
2019-06-07T12:28:41.804Z,46.47
2019-06-07T12:29:41.792Z,45.18
2019-06-07T12:30:41.788Z,48.65
2019-06-07T12:31:41.776Z,45.45
2019-06-07T12:32:41.761Z,46.62
2019-06-07T12:33:41.750Z,47.39
2019-06-07T12:34:41.748Z,43.93
2019-06-07T12:35:41.731Z,46.20
2019-06-07T12:36:41.726Z,45.98
2019-06-07T12:37:44.479Z,46.53
2019-06-07T12:38:41.704Z,45.92
2019-06-07T12:39:41.692Z,44.24
2019-06-07T12:40:41.682Z,43.74
2019-06-07T12:41:41.679Z,44.97
2019-06-07T12:42:41.665Z,45.61
2019-06-07T12:43:41.655Z,45.81
2019-06-07T12:44:41.638Z,45.16
2019-06-07T12:45:45.284Z,44.17
2019-06-07T12:46:41.620Z,47.31
2019-06-07T12:47:41.612Z,44.40
2019-06-07T12:48:41.595Z,43.69
2019-06-07T12:49:41.590Z,43.39
2019-06-07T12:50:42.927Z,44.26
2019-06-07T12:51:41.573Z,46.44
2019-06-07T12:52:41.595Z,43.74
2019-06-07T12:53:41.547Z,44.10
2019-06-07T12:54:41.578Z,45.40
2019-06-07T12:55:41.526Z,43.45
2019-06-07T12:56:41.513Z,44.50
2019-06-07T12:57:41.505Z,46.20
2019-06-07T12:58:41.494Z,45.61
2019-06-07T12:59:41.489Z,48.73
2019-06-07T13:00:41.473Z,45.84
2019-06-07T13:01:41.463Z,45.68
2019-06-07T13:02:41.456Z,43.87
2019-06-07T13:03:41.440Z,43.80
2019-06-07T13:04:41.431Z,41.25